Aplicació Alertes

Dades de l'estació automàtica l'Ametlla de Mar

?
?
Resum diari 22:00 TU
Dades diàries de l'estació meteorològica
Temperatura mitjana 8.6 °C
Temperatura màxima 13.2 °C 14:08 TU
Temperatura mínima 5.3 °C 7:19 TU
Humitat relativa mitjana 54%
Precipitació acumulada 0.0 mm
Ratxa màxima del vent (2 m) 30.6 km/h - 335º 9:24 TU
Irradiació solar global 9.0 MJ/m2

El tram horari està expressat en Temps Universal (TU). Cal sumar una hora en horari d'hivern i dues en horari d'estiu per passar a l'hora oficial.

l'Ametlla de Mar

Metadades estació meteorol´gica
Municipi L'Ametlla de Mar
Comarca Baix Ebre
Altitud 93 m
Data alta 29.08.1995
Estat actual Operativa
Dades de període
Període
TU
TM
°C
TX
°C
TN
°C
HRM
%
PPT
mm
VVM (2 m)
km/h
DVM (2 m)
graus
VVX (2 m)
km/h
RS
W/m2
00:00 - 00:30 6.6 6.7 6.5 62 0.0 8.3 320 24.1 0
00:30 - 01:00 6.4 6.6 6.3 62 0.0 7.9 318 23.8 0
01:00 - 01:30 6.4 6.4 6.3 62 0.0 8.6 321 22.7 0
01:30 - 02:00 6.3 6.5 6.2 62 0.0 8.3 321 26.3 0
02:00 - 02:30 6.1 6.2 6.1 63 0.0 7.6 321 20.2 0
02:30 - 03:00 6.1 6.2 6.1 63 0.0 7.6 317 30.2 0
03:00 - 03:30 6.3 6.4 6.2 61 0.0 8.6 324 24.8 0
03:30 - 04:00 6.4 6.5 6.3 59 0.0 8.3 318 26.6 0
04:00 - 04:30 6.1 6.3 6.1 59 0.0 7.2 316 23.4 0
04:30 - 05:00 6.0 6.1 5.9 58 0.0 7.6 317 23.8 0
05:00 - 05:30 5.9 6.0 5.8 59 0.0 6.8 314 25.2 0
05:30 - 06:00 6.0 6.0 5.9 62 0.0 7.6 318 21.6 0
06:00 - 06:30 6.0 6.0 5.8 63 0.0 7.6 322 25.6 0
06:30 - 07:00 5.7 5.8 5.6 65 0.0 6.8 318 20.9 0
07:00 - 07:30 5.4 5.6 5.3 67 0.0 7.2 328 21.6 6
07:30 - 08:00 5.6 5.9 5.4 66 0.0 7.6 326 27.0 48
08:00 - 08:30 6.4 6.9 5.9 64 0.0 6.5 322 19.1 121
08:30 - 09:00 7.2 7.4 6.9 61 0.0 6.8 318 25.9 191
09:00 - 09:30 7.6 7.9 7.4 60 0.0 8.6 322 30.6 261
09:30 - 10:00 8.3 8.6 7.9 57 0.0 9.0 327 26.3 322
10:00 - 10:30 9.0 9.5 8.8 55 0.0 9.4 328 29.9 371
10:30 - 11:00 9.8 10.2 9.2 52 0.0 7.6 321 27.4 410
11:00 - 11:30 10.1 10.4 9.9 50 0.0 9.4 328 26.3 433
11:30 - 12:00 11.0 11.6 10.3 47 0.0 7.2 325 23.8 444
12:00 - 12:30 11.5 11.8 11.1 44 0.0 7.2 316 20.2 440
12:30 - 13:00 11.8 12.0 11.1 41 0.0 7.2 321 22.7 423
13:00 - 13:30 12.2 12.3 11.9 39 0.0 6.5 323 20.5 394
13:30 - 14:00 12.5 12.8 12.2 38 0.0 6.1 317 22.0 351
14:00 - 14:30 12.8 13.2 12.4 37 0.0 6.1 302 19.8 297
14:30 - 15:00 12.5 12.9 12.2 37 0.0 6.1 305 22.3 231
15:00 - 15:30 12.2 12.4 11.9 37 0.0 6.1 294 19.4 160
15:30 - 16:00 11.5 11.8 11.2 40 0.0 5.4 302 19.4 90
16:00 - 16:30 10.8 11.2 10.3 42 0.0 4.7 309 13.0 21
16:30 - 17:00 9.9 10.3 9.8 45 0.0 4.0 302 14.0 2
17:00 - 17:30 10.0 10.1 9.9 45 0.0 4.7 310 14.0 0
17:30 - 18:00 10.0 10.1 9.8 48 0.0 4.7 312 13.3 0
18:00 - 18:30 9.7 9.9 9.5 52 0.0 5.0 318 18.7 0
18:30 - 19:00 9.6 9.7 9.5 53 0.0 6.1 320 18.7 0
19:00 - 19:30 9.4 9.5 9.3 54 0.0 5.8 319 20.2 0
19:30 - 20:00 9.2 9.3 9.1 54 0.0 5.8 315 18.7 0
20:00 - 20:30 9.2 9.3 9.1 55 0.0 7.2 314 23.4 0
20:30 - 21:00 8.9 9.1 8.8 57 0.0 6.5 313 22.3 0
21:00 - 21:30 8.6 8.8 8.5 59 0.0 5.8 311 15.5 0
21:30 - 22:00 8.5 8.6 8.4 61 0.0 6.1 308 18.4 0
22:00 - 22:30 8.5 8.6 8.5 61 0.0 6.1 313 18.0 0
22:30 - 23:00 (s/d) (s/d) (s/d) (s/d) (s/d) (s/d) (s/d) (s/d) (s/d)
23:00 - 23:30 (s/d) (s/d) (s/d) (s/d) (s/d) (s/d) (s/d) (s/d) (s/d)

Les dades en taronja només han passat un control de qualitat automàtic. Resta pendent la seva validació definitiva.